sensor_id;sensor_type;location;lat;lon;timestamp;temperature;humidity
52943;DHT22;38809;53.300;6.614;2023-09-12T00:00:54;19.70;99.90
52943;DHT22;38809;53.300;6.614;2023-09-12T00:03:21;19.80;99.90
52943;DHT22;38809;53.300;6.614;2023-09-12T00:05:54;19.70;99.90
52943;DHT22;38809;53.300;6.614;2023-09-12T00:08:20;19.70;99.90
52943;DHT22;38809;53.300;6.614;2023-09-12T00:10:46;19.80;99.90
52943;DHT22;38809;53.300;6.614;2023-09-12T00:13:12;19.80;99.90
52943;DHT22;38809;53.300;6.614;2023-09-12T00:15:37;19.80;99.90
52943;DHT22;38809;53.300;6.614;2023-09-12T00:18:03;19.90;99.90
52943;DHT22;38809;53.300;6.614;2023-09-12T00:20:29;19.80;99.90
52943;DHT22;38809;53.300;6.614;2023-09-12T00:22:55;19.80;99.90
52943;DHT22;38809;53.300;6.614;2023-09-12T00:25:21;19.80;99.90
52943;DHT22;38809;53.300;6.614;2023-09-12T00:27:47;19.90;99.90
52943;DHT22;38809;53.300;6.614;2023-09-12T00:30:14;19.90;99.90
52943;DHT22;38809;53.300;6.614;2023-09-12T00:32:40;19.90;99.90
52943;DHT22;38809;53.300;6.614;2023-09-12T00:35:06;20.00;99.90
52943;DHT22;38809;53.300;6.614;2023-09-12T00:37:31;20.00;99.90
52943;DHT22;38809;53.300;6.614;2023-09-12T00:39:57;20.00;99.90
52943;DHT22;38809;53.300;6.614;2023-09-12T00:42:25;20.00;99.90
52943;DHT22;38809;53.300;6.614;2023-09-12T00:44:52;20.20;99.90
52943;DHT22;38809;53.300;6.614;2023-09-12T00:47:17;20.20;99.90
52943;DHT22;38809;53.300;6.614;2023-09-12T00:49:45;20.10;99.90
52943;DHT22;38809;53.300;6.614;2023-09-12T00:52:12;20.10;99.90
52943;DHT22;38809;53.300;6.614;2023-09-12T00:54:39;19.90;99.90
52943;DHT22;38809;53.300;6.614;2023-09-12T00:57:06;19.80;99.90
52943;DHT22;38809;53.300;6.614;2023-09-12T00:59:32;19.70;99.90
52943;DHT22;38809;53.300;6.614;2023-09-12T01:01:59;19.70;99.90
52943;DHT22;38809;53.300;6.614;2023-09-12T01:04:26;19.70;99.90
52943;DHT22;38809;53.300;6.614;2023-09-12T01:06:52;19.70;99.90
52943;DHT22;38809;53.300;6.614;2023-09-12T01:09:17;19.70;99.90
52943;DHT22;38809;53.300;6.614;2023-09-12T01:11:44;19.70;99.90
52943;DHT22;38809;53.300;6.614;2023-09-12T01:14:10;19.80;99.90
52943;DHT22;38809;53.300;6.614;2023-09-12T01:16:35;19.90;99.90
52943;DHT22;38809;53.300;6.614;2023-09-12T01:19:02;19.90;99.90
52943;DHT22;38809;53.300;6.614;2023-09-12T01:29:35;20.10;99.90
52943;DHT22;38809;53.300;6.614;2023-09-12T01:32:01;20.00;99.90
52943;DHT22;38809;53.300;6.614;2023-09-12T01:34:28;20.00;99.90
52943;DHT22;38809;53.300;6.614;2023-09-12T01:36:54;20.00;99.90
52943;DHT22;38809;53.300;6.614;2023-09-12T01:39:20;20.00;99.90
52943;DHT22;38809;53.300;6.614;2023-09-12T01:41:47;20.00;99.90
52943;DHT22;38809;53.300;6.614;2023-09-12T01:44:14;19.80;99.90
52943;DHT22;38809;53.300;6.614;2023-09-12T01:46:41;19.70;99.90
52943;DHT22;38809;53.300;6.614;2023-09-12T01:49:07;19.60;99.90
52943;DHT22;38809;53.300;6.614;2023-09-12T01:51:34;19.50;99.90
52943;DHT22;38809;53.300;6.614;2023-09-12T01:54:01;19.40;99.90
52943;DHT22;38809;53.300;6.614;2023-09-12T01:56:29;19.30;99.90
52943;DHT22;38809;53.300;6.614;2023-09-12T01:58:56;19.30;99.90
52943;DHT22;38809;53.300;6.614;2023-09-12T02:01:21;19.20;99.90
52943;DHT22;38809;53.300;6.614;2023-09-12T02:03:47;19.20;99.90
52943;DHT22;38809;53.300;6.614;2023-09-12T02:06:12;19.20;99.90
52943;DHT22;38809;53.300;6.614;2023-09-12T02:08:38;19.30;99.90
52943;DHT22;38809;53.300;6.614;2023-09-12T02:11:04;19.40;99.90
52943;DHT22;38809;53.300;6.614;2023-09-12T02:13:29;19.50;99.90
52943;DHT22;38809;53.300;6.614;2023-09-12T02:15:59;19.50;99.90
52943;DHT22;38809;53.300;6.614;2023-09-12T02:18:25;19.60;99.90
52943;DHT22;38809;53.300;6.614;2023-09-12T02:20:51;19.50;99.90
52943;DHT22;38809;53.300;6.614;2023-09-12T02:23:16;19.60;99.90
52943;DHT22;38809;53.300;6.614;2023-09-12T02:25:42;19.60;99.90
52943;DHT22;38809;53.300;6.614;2023-09-12T02:28:08;19.50;99.90
52943;DHT22;38809;53.300;6.614;2023-09-12T02:30:33;19.60;99.90
52943;DHT22;38809;53.300;6.614;2023-09-12T02:32:59;19.60;99.90
52943;DHT22;38809;53.300;6.614;2023-09-12T02:35:27;19.50;99.90
52943;DHT22;38809;53.300;6.614;2023-09-12T02:37:52;19.50;99.90
52943;DHT22;38809;53.300;6.614;2023-09-12T02:40:18;19.50;99.90
52943;DHT22;38809;53.300;6.614;2023-09-12T02:42:44;19.50;99.90
52943;DHT22;38809;53.300;6.614;2023-09-12T02:45:10;19.50;99.90
52943;DHT22;38809;53.300;6.614;2023-09-12T02:47:35;19.50;99.90
52943;DHT22;38809;53.300;6.614;2023-09-12T02:50:01;19.50;99.90
52943;DHT22;38809;53.300;6.614;2023-09-12T02:52:27;19.50;99.90
52943;DHT22;38809;53.300;6.614;2023-09-12T02:54:53;19.50;99.90
52943;DHT22;38809;53.300;6.614;2023-09-12T02:57:18;19.50;99.90
52943;DHT22;38809;53.300;6.614;2023-09-12T02:59:44;19.60;99.90
52943;DHT22;38809;53.300;6.614;2023-09-12T03:02:10;19.40;99.90
52943;DHT22;38809;53.300;6.614;2023-09-12T03:04:36;19.40;99.90
52943;DHT22;38809;53.300;6.614;2023-09-12T03:07:02;19.40;99.90
52943;DHT22;38809;53.300;6.614;2023-09-12T03:09:27;19.40;99.90
52943;DHT22;38809;53.300;6.614;2023-09-12T03:11:53;19.40;99.90
52943;DHT22;38809;53.300;6.614;2023-09-12T03:14:19;19.30;99.90
52943;DHT22;38809;53.300;6.614;2023-09-12T03:16:44;19.30;99.90
52943;DHT22;38809;53.300;6.614;2023-09-12T03:19:10;19.20;99.90
52943;DHT22;38809;53.300;6.614;2023-09-12T03:21:36;19.20;99.90
52943;DHT22;38809;53.300;6.614;2023-09-12T03:24:02;19.20;99.90
52943;DHT22;38809;53.300;6.614;2023-09-12T03:26:27;19.10;99.90
52943;DHT22;38809;53.300;6.614;2023-09-12T03:28:53;19.10;99.90
52943;DHT22;38809;53.300;6.614;2023-09-12T03:31:19;19.10;99.90
52943;DHT22;38809;53.300;6.614;2023-09-12T03:33:44;19.00;99.90
52943;DHT22;38809;53.300;6.614;2023-09-12T03:36:15;18.90;99.90
52943;DHT22;38809;53.300;6.614;2023-09-12T03:38:41;18.80;99.90
52943;DHT22;38809;53.300;6.614;2023-09-12T03:41:07;18.80;99.90
52943;DHT22;38809;53.300;6.614;2023-09-12T03:43:33;18.80;99.90
52943;DHT22;38809;53.300;6.614;2023-09-12T03:45:59;18.90;99.90
52943;DHT22;38809;53.300;6.614;2023-09-12T03:48:25;18.80;99.90
52943;DHT22;38809;53.300;6.614;2023-09-12T03:50:51;18.80;99.90
52943;DHT22;38809;53.300;6.614;2023-09-12T03:53:17;18.70;99.90
52943;DHT22;38809;53.300;6.614;2023-09-12T03:55:43;18.60;99.90
52943;DHT22;38809;53.300;6.614;2023-09-12T03:58:09;18.60;99.90
52943;DHT22;38809;53.300;6.614;2023-09-12T04:00:34;18.50;99.90
52943;DHT22;38809;53.300;6.614;2023-09-12T04:03:00;18.60;99.90
52943;DHT22;38809;53.300;6.614;2023-09-12T04:05:26;18.60;99.90
52943;DHT22;38809;53.300;6.614;2023-09-12T04:07:52;18.60;99.90
52943;DHT22;38809;53.300;6.614;2023-09-12T04:10:19;18.80;99.90
52943;DHT22;38809;53.300;6.614;2023-09-12T04:12:45;18.70;99.90
52943;DHT22;38809;53.300;6.614;2023-09-12T04:15:11;18.90;99.90
52943;DHT22;38809;53.300;6.614;2023-09-12T04:17:37;18.80;99.90
52943;DHT22;38809;53.300;6.614;2023-09-12T04:20:02;18.80;99.90
52943;DHT22;38809;53.300;6.614;2023-09-12T04:22:30;18.70;99.90
52943;DHT22;38809;53.300;6.614;2023-09-12T04:24:55;18.60;99.90
52943;DHT22;38809;53.300;6.614;2023-09-12T04:27:21;18.60;99.90
52943;DHT22;38809;53.300;6.614;2023-09-12T04:29:47;18.60;99.90
52943;DHT22;38809;53.300;6.614;2023-09-12T04:32:12;18.60;99.90
52943;DHT22;38809;53.300;6.614;2023-09-12T04:34:38;18.40;99.90
52943;DHT22;38809;53.300;6.614;2023-09-12T04:37:04;18.30;99.90
52943;DHT22;38809;53.300;6.614;2023-09-12T04:39:31;18.20;99.90
52943;DHT22;38809;53.300;6.614;2023-09-12T04:41:57;18.30;99.90
52943;DHT22;38809;53.300;6.614;2023-09-12T04:44:22;18.30;99.90
52943;DHT22;38809;53.300;6.614;2023-09-12T04:46:48;18.30;99.90
52943;DHT22;38809;53.300;6.614;2023-09-12T04:49:14;18.40;99.90
52943;DHT22;38809;53.300;6.614;2023-09-12T04:51:39;18.40;99.90
52943;DHT22;38809;53.300;6.614;2023-09-12T04:54:05;18.40;99.90
52943;DHT22;38809;53.300;6.614;2023-09-12T04:56:31;18.50;99.90
52943;DHT22;38809;53.300;6.614;2023-09-12T04:58:57;18.60;99.90
52943;DHT22;38809;53.300;6.614;2023-09-12T05:01:22;18.60;99.90
52943;DHT22;38809;53.300;6.614;2023-09-12T05:03:48;18.70;99.90
52943;DHT22;38809;53.300;6.614;2023-09-12T05:06:14;18.70;99.90
52943;DHT22;38809;53.300;6.614;2023-09-12T05:08:39;18.70;99.90
52943;DHT22;38809;53.300;6.614;2023-09-12T05:11:05;18.80;99.90
52943;DHT22;38809;53.300;6.614;2023-09-12T05:13:31;18.80;99.90
52943;DHT22;38809;53.300;6.614;2023-09-12T05:15:56;18.90;99.90
52943;DHT22;38809;53.300;6.614;2023-09-12T05:18:22;18.80;99.90
52943;DHT22;38809;53.300;6.614;2023-09-12T05:20:48;18.80;99.90
52943;DHT22;38809;53.300;6.614;2023-09-12T05:23:14;18.80;99.90
52943;DHT22;38809;53.300;6.614;2023-09-12T05:25:40;18.80;99.90
52943;DHT22;38809;53.300;6.614;2023-09-12T05:28:06;18.50;99.90
52943;DHT22;38809;53.300;6.614;2023-09-12T05:30:32;18.40;99.90
52943;DHT22;38809;53.300;6.614;2023-09-12T05:32:58;18.50;99.90
52943;DHT22;38809;53.300;6.614;2023-09-12T05:35:23;18.40;99.90
52943;DHT22;38809;53.300;6.614;2023-09-12T05:37:50;18.40;99.90
52943;DHT22;38809;53.300;6.614;2023-09-12T05:40:16;18.30;99.90
52943;DHT22;38809;53.300;6.614;2023-09-12T05:42:41;18.10;99.90
52943;DHT22;38809;53.300;6.614;2023-09-12T05:45:07;18.10;99.90
52943;DHT22;38809;53.300;6.614;2023-09-12T05:47:33;18.10;99.90
52943;DHT22;38809;53.300;6.614;2023-09-12T05:49:59;18.10;99.90
52943;DHT22;38809;53.300;6.614;2023-09-12T05:52:26;18.30;99.90
52943;DHT22;38809;53.300;6.614;2023-09-12T05:54:52;18.30;99.90
52943;DHT22;38809;53.300;6.614;2023-09-12T05:57:17;18.30;99.90
52943;DHT22;38809;53.300;6.614;2023-09-12T05:59:43;18.40;99.90
52943;DHT22;38809;53.300;6.614;2023-09-12T06:02:10;18.20;99.90
52943;DHT22;38809;53.300;6.614;2023-09-12T06:04:36;18.30;99.90
52943;DHT22;38809;53.300;6.614;2023-09-12T06:07:02;18.30;99.90
52943;DHT22;38809;53.300;6.614;2023-09-12T06:09:29;18.40;99.90
52943;DHT22;38809;53.300;6.614;2023-09-12T06:11:54;18.40;99.90
52943;DHT22;38809;53.300;6.614;2023-09-12T06:14:20;18.40;99.90
52943;DHT22;38809;53.300;6.614;2023-09-12T06:16:46;18.50;99.90
52943;DHT22;38809;53.300;6.614;2023-09-12T06:19:12;18.50;99.90
52943;DHT22;38809;53.300;6.614;2023-09-12T06:21:37;18.50;99.90
52943;DHT22;38809;53.300;6.614;2023-09-12T06:24:14;18.50;99.90
52943;DHT22;38809;53.300;6.614;2023-09-12T06:26:41;18.60;99.90
52943;DHT22;38809;53.300;6.614;2023-09-12T06:29:07;18.60;99.90
52943;DHT22;38809;53.300;6.614;2023-09-12T06:31:33;18.70;99.90
52943;DHT22;38809;53.300;6.614;2023-09-12T06:33:59;18.70;99.90
52943;DHT22;38809;53.300;6.614;2023-09-12T06:36:25;18.60;99.90
52943;DHT22;38809;53.300;6.614;2023-09-12T06:38:51;18.70;99.90
52943;DHT22;38809;53.300;6.614;2023-09-12T06:41:20;18.70;99.90
52943;DHT22;38809;53.300;6.614;2023-09-12T06:43:46;18.90;99.90
52943;DHT22;38809;53.300;6.614;2023-09-12T06:46:11;18.80;99.90
52943;DHT22;38809;53.300;6.614;2023-09-12T06:48:37;18.80;99.90
52943;DHT22;38809;53.300;6.614;2023-09-12T06:51:08;18.90;99.90
52943;DHT22;38809;53.300;6.614;2023-09-12T06:53:34;18.80;99.90
52943;DHT22;38809;53.300;6.614;2023-09-12T06:55:59;18.80;99.90
52943;DHT22;38809;53.300;6.614;2023-09-12T06:58:25;18.90;99.90
52943;DHT22;38809;53.300;6.614;2023-09-12T07:00:51;19.00;99.90
52943;DHT22;38809;53.300;6.614;2023-09-12T07:03:17;19.10;99.90
52943;DHT22;38809;53.300;6.614;2023-09-12T07:05:43;19.10;99.90
52943;DHT22;38809;53.300;6.614;2023-09-12T07:08:10;19.00;99.90
52943;DHT22;38809;53.300;6.614;2023-09-12T07:10:35;18.90;99.90
52943;DHT22;38809;53.300;6.614;2023-09-12T07:13:02;19.00;99.90
52943;DHT22;38809;53.300;6.614;2023-09-12T07:15:28;19.10;99.90
52943;DHT22;38809;53.300;6.614;2023-09-12T07:17:53;19.10;99.90
52943;DHT22;38809;53.300;6.614;2023-09-12T07:20:19;19.10;99.90
52943;DHT22;38809;53.300;6.614;2023-09-12T07:22:46;19.10;99.90
52943;DHT22;38809;53.300;6.614;2023-09-12T07:25:13;19.00;99.90
52943;DHT22;38809;53.300;6.614;2023-09-12T07:27:39;19.00;99.90
52943;DHT22;38809;53.300;6.614;2023-09-12T07:30:06;19.10;99.90
52943;DHT22;38809;53.300;6.614;2023-09-12T07:32:32;19.10;99.90
52943;DHT22;38809;53.300;6.614;2023-09-12T07:34:57;19.20;99.90
52943;DHT22;38809;53.300;6.614;2023-09-12T07:37:23;19.30;99.90
52943;DHT22;38809;53.300;6.614;2023-09-12T07:39:49;19.30;99.90
52943;DHT22;38809;53.300;6.614;2023-09-12T07:42:14;19.40;99.90
52943;DHT22;38809;53.300;6.614;2023-09-12T07:44:40;19.40;99.90
52943;DHT22;38809;53.300;6.614;2023-09-12T07:47:07;19.30;99.90
52943;DHT22;38809;53.300;6.614;2023-09-12T07:49:32;19.20;99.90
52943;DHT22;38809;53.300;6.614;2023-09-12T07:51:58;19.30;99.90
52943;DHT22;38809;53.300;6.614;2023-09-12T07:54:24;19.30;99.90
52943;DHT22;38809;53.300;6.614;2023-09-12T07:56:49;19.30;99.90
52943;DHT22;38809;53.300;6.614;2023-09-12T07:59:15;19.30;99.90
52943;DHT22;38809;53.300;6.614;2023-09-12T08:01:41;19.20;99.90
52943;DHT22;38809;53.300;6.614;2023-09-12T08:04:07;19.20;99.90
52943;DHT22;38809;53.300;6.614;2023-09-12T08:06:32;19.40;99.90
52943;DHT22;38809;53.300;6.614;2023-09-12T08:08:58;19.40;99.90
52943;DHT22;38809;53.300;6.614;2023-09-12T08:11:24;19.50;99.90
52943;DHT22;38809;53.300;6.614;2023-09-12T08:13:50;19.60;99.90
52943;DHT22;38809;53.300;6.614;2023-09-12T08:16:16;19.60;99.90
52943;DHT22;38809;53.300;6.614;2023-09-12T08:18:42;19.50;99.90
52943;DHT22;38809;53.300;6.614;2023-09-12T08:21:07;19.50;99.90
52943;DHT22;38809;53.300;6.614;2023-09-12T08:23:33;19.50;99.90
52943;DHT22;38809;53.300;6.614;2023-09-12T08:25:59;19.40;99.90
52943;DHT22;38809;53.300;6.614;2023-09-12T08:28:25;19.40;99.90
52943;DHT22;38809;53.300;6.614;2023-09-12T08:30:51;19.50;99.90
52943;DHT22;38809;53.300;6.614;2023-09-12T08:33:16;19.50;99.90
52943;DHT22;38809;53.300;6.614;2023-09-12T08:35:42;19.40;99.90
52943;DHT22;38809;53.300;6.614;2023-09-12T08:38:08;19.40;99.90
52943;DHT22;38809;53.300;6.614;2023-09-12T08:40:34;19.40;99.90
52943;DHT22;38809;53.300;6.614;2023-09-12T08:43:01;19.50;99.90
52943;DHT22;38809;53.300;6.614;2023-09-12T08:45:29;19.50;99.90
52943;DHT22;38809;53.300;6.614;2023-09-12T08:47:56;19.60;99.90
52943;DHT22;38809;53.300;6.614;2023-09-12T08:50:22;19.70;99.90
52943;DHT22;38809;53.300;6.614;2023-09-12T08:52:51;19.70;99.90
52943;DHT22;38809;53.300;6.614;2023-09-12T08:55:16;19.70;99.90
52943;DHT22;38809;53.300;6.614;2023-09-12T08:57:43;19.80;99.90
52943;DHT22;38809;53.300;6.614;2023-09-12T09:00:10;19.90;99.90
52943;DHT22;38809;53.300;6.614;2023-09-12T09:02:39;19.90;99.90
52943;DHT22;38809;53.300;6.614;2023-09-12T09:05:09;20.00;99.90
52943;DHT22;38809;53.300;6.614;2023-09-12T09:07:37;19.90;99.90
52943;DHT22;38809;53.300;6.614;2023-09-12T09:10:04;20.00;99.90
52943;DHT22;38809;53.300;6.614;2023-09-12T09:12:31;20.00;99.90
52943;DHT22;38809;53.300;6.614;2023-09-12T09:14:57;20.10;99.90
52943;DHT22;38809;53.300;6.614;2023-09-12T09:17:23;20.20;99.90
52943;DHT22;38809;53.300;6.614;2023-09-12T09:19:49;20.40;99.90
52943;DHT22;38809;53.300;6.614;2023-09-12T09:22:15;20.40;99.90
52943;DHT22;38809;53.300;6.614;2023-09-12T09:24:41;20.50;99.90
52943;DHT22;38809;53.300;6.614;2023-09-12T09:27:07;20.40;99.90
52943;DHT22;38809;53.300;6.614;2023-09-12T09:29:48;20.40;99.90
52943;DHT22;38809;53.300;6.614;2023-09-12T09:32:18;20.30;99.90
52943;DHT22;38809;53.300;6.614;2023-09-12T09:34:44;20.40;99.90
52943;DHT22;38809;53.300;6.614;2023-09-12T09:37:10;20.50;99.90
52943;DHT22;38809;53.300;6.614;2023-09-12T09:39:36;20.50;99.90
52943;DHT22;38809;53.300;6.614;2023-09-12T09:42:02;20.50;99.90
52943;DHT22;38809;53.300;6.614;2023-09-12T09:44:28;20.60;99.90
52943;DHT22;38809;53.300;6.614;2023-09-12T09:47:00;20.80;99.90
52943;DHT22;38809;53.300;6.614;2023-09-12T09:49:30;20.90;99.90
52943;DHT22;38809;53.300;6.614;2023-09-12T09:51:56;20.90;99.90
52943;DHT22;38809;53.300;6.614;2023-09-12T09:54:25;20.90;99.90
52943;DHT22;38809;53.300;6.614;2023-09-12T09:56:54;21.00;99.90
52943;DHT22;38809;53.300;6.614;2023-09-12T09:59:25;21.10;99.90
52943;DHT22;38809;53.300;6.614;2023-09-12T10:01:55;21.10;99.90
52943;DHT22;38809;53.300;6.614;2023-09-12T10:04:22;21.10;99.90
52943;DHT22;38809;53.300;6.614;2023-09-12T10:06:49;21.30;99.90
52943;DHT22;38809;53.300;6.614;2023-09-12T10:09:16;21.50;99.90
52943;DHT22;38809;53.300;6.614;2023-09-12T10:11:43;21.60;99.90
52943;DHT22;38809;53.300;6.614;2023-09-12T10:14:12;21.70;99.90
52943;DHT22;38809;53.300;6.614;2023-09-12T10:16:50;21.70;99.90
52943;DHT22;38809;53.300;6.614;2023-09-12T10:19:24;21.90;99.90
52943;DHT22;38809;53.300;6.614;2023-09-12T10:24:29;22.00;99.90
52943;DHT22;38809;53.300;6.614;2023-09-12T10:26:56;21.90;99.90
52943;DHT22;38809;53.300;6.614;2023-09-12T10:29:22;22.00;99.90
52943;DHT22;38809;53.300;6.614;2023-09-12T10:31:48;22.00;99.90
52943;DHT22;38809;53.300;6.614;2023-09-12T10:34:15;22.10;99.90
52943;DHT22;38809;53.300;6.614;2023-09-12T10:36:42;22.10;99.90
52943;DHT22;38809;53.300;6.614;2023-09-12T10:39:11;22.10;99.90
52943;DHT22;38809;53.300;6.614;2023-09-12T10:41:38;22.20;99.90
52943;DHT22;38809;53.300;6.614;2023-09-12T10:44:14;22.20;99.90
52943;DHT22;38809;53.300;6.614;2023-09-12T10:46:41;22.20;99.90
52943;DHT22;38809;53.300;6.614;2023-09-12T10:49:12;22.20;99.90
52943;DHT22;38809;53.300;6.614;2023-09-12T10:51:40;22.40;99.90
52943;DHT22;38809;53.300;6.614;2023-09-12T10:54:06;22.60;99.90
52943;DHT22;38809;53.300;6.614;2023-09-12T10:56:34;22.70;99.90
52943;DHT22;38809;53.300;6.614;2023-09-12T11:01:54;22.70;99.90
52943;DHT22;38809;53.300;6.614;2023-09-12T11:06:53;22.70;99.90
52943;DHT22;38809;53.300;6.614;2023-09-12T11:09:23;22.60;99.90
52943;DHT22;38809;53.300;6.614;2023-09-12T11:14:22;22.60;99.90
52943;DHT22;38809;53.300;6.614;2023-09-12T11:19:47;22.60;99.90
52943;DHT22;38809;53.300;6.614;2023-09-12T11:22:29;22.60;99.90
52943;DHT22;38809;53.300;6.614;2023-09-12T11:24:56;22.60;99.90
52943;DHT22;38809;53.300;6.614;2023-09-12T11:27:25;22.60;99.90
52943;DHT22;38809;53.300;6.614;2023-09-12T11:30:03;22.60;99.90
52943;DHT22;38809;53.300;6.614;2023-09-12T11:32:34;22.60;99.90
52943;DHT22;38809;53.300;6.614;2023-09-12T11:35:06;22.60;99.90
52943;DHT22;38809;53.300;6.614;2023-09-12T11:37:32;22.70;99.90
52943;DHT22;38809;53.300;6.614;2023-09-12T11:39:58;22.60;99.90
52943;DHT22;38809;53.300;6.614;2023-09-12T11:42:24;22.60;99.90
52943;DHT22;38809;53.300;6.614;2023-09-12T11:44:53;22.70;99.90
52943;DHT22;38809;53.300;6.614;2023-09-12T11:47:19;22.80;99.90
52943;DHT22;38809;53.300;6.614;2023-09-12T11:49:46;22.90;99.90
52943;DHT22;38809;53.300;6.614;2023-09-12T11:52:15;23.20;99.90
52943;DHT22;38809;53.300;6.614;2023-09-12T11:54:45;23.40;99.90
52943;DHT22;38809;53.300;6.614;2023-09-12T11:57:15;23.40;99.90
52943;DHT22;38809;53.300;6.614;2023-09-12T11:59:43;23.40;99.90
52943;DHT22;38809;53.300;6.614;2023-09-12T12:02:14;23.50;99.90
52943;DHT22;38809;53.300;6.614;2023-09-12T12:04:40;23.50;99.90
52943;DHT22;38809;53.300;6.614;2023-09-12T12:07:06;23.50;99.90
52943;DHT22;38809;53.300;6.614;2023-09-12T12:09:32;23.60;99.90
52943;DHT22;38809;53.300;6.614;2023-09-12T12:12:11;23.60;99.90
52943;DHT22;38809;53.300;6.614;2023-09-12T12:14:39;23.70;99.90
52943;DHT22;38809;53.300;6.614;2023-09-12T12:17:12;23.70;99.90
52943;DHT22;38809;53.300;6.614;2023-09-12T12:19:38;23.80;99.90
52943;DHT22;38809;53.300;6.614;2023-09-12T12:22:05;23.90;99.90
52943;DHT22;38809;53.300;6.614;2023-09-12T12:24:45;23.60;99.90
52943;DHT22;38809;53.300;6.614;2023-09-12T12:27:11;22.80;99.90
52943;DHT22;38809;53.300;6.614;2023-09-12T12:29:39;22.30;99.90
52943;DHT22;38809;53.300;6.614;2023-09-12T12:32:06;21.90;99.90
52943;DHT22;38809;53.300;6.614;2023-09-12T12:34:32;21.70;99.90
52943;DHT22;38809;53.300;6.614;2023-09-12T12:36:57;21.50;99.90
52943;DHT22;38809;53.300;6.614;2023-09-12T12:39:23;21.30;99.90
52943;DHT22;38809;53.300;6.614;2023-09-12T12:41:52;21.10;99.90
52943;DHT22;38809;53.300;6.614;2023-09-12T12:44:19;20.90;99.90
52943;DHT22;38809;53.300;6.614;2023-09-12T12:46:52;20.80;99.90
52943;DHT22;38809;53.300;6.614;2023-09-12T12:49:21;20.80;99.90
52943;DHT22;38809;53.300;6.614;2023-09-12T12:51:48;20.80;99.90
52943;DHT22;38809;53.300;6.614;2023-09-12T12:54:14;20.90;99.90
52943;DHT22;38809;53.300;6.614;2023-09-12T12:56:41;21.10;99.90
52943;DHT22;38809;53.300;6.614;2023-09-12T12:59:08;21.00;99.90
52943;DHT22;38809;53.300;6.614;2023-09-12T13:01:37;20.50;99.90
52943;DHT22;38809;53.300;6.614;2023-09-12T13:04:09;19.80;99.90
52943;DHT22;38809;53.300;6.614;2023-09-12T13:06:35;20.20;99.90
52943;DHT22;38809;53.300;6.614;2023-09-12T13:09:04;19.70;99.90
52943;DHT22;38809;53.300;6.614;2023-09-12T13:11:34;19.60;99.90
52943;DHT22;38809;53.300;6.614;2023-09-12T13:14:03;19.70;99.90
52943;DHT22;38809;53.300;6.614;2023-09-12T13:16:35;19.60;99.90
52943;DHT22;38809;53.300;6.614;2023-09-12T13:19:00;20.10;99.90
52943;DHT22;38809;53.300;6.614;2023-09-12T13:21:26;20.20;99.90
52943;DHT22;38809;53.300;6.614;2023-09-12T13:23:53;20.30;99.90
52943;DHT22;38809;53.300;6.614;2023-09-12T13:26:19;20.40;99.90
52943;DHT22;38809;53.300;6.614;2023-09-12T13:28:45;20.60;99.90
52943;DHT22;38809;53.300;6.614;2023-09-12T13:31:10;20.90;99.90
52943;DHT22;38809;53.300;6.614;2023-09-12T13:33:37;21.00;99.90
52943;DHT22;38809;53.300;6.614;2023-09-12T13:36:03;20.90;99.90
52943;DHT22;38809;53.300;6.614;2023-09-12T13:38:29;20.50;99.90
52943;DHT22;38809;53.300;6.614;2023-09-12T13:40:54;20.40;99.90
52943;DHT22;38809;53.300;6.614;2023-09-12T13:43:20;20.50;99.90
52943;DHT22;38809;53.300;6.614;2023-09-12T13:45:46;20.70;99.90
52943;DHT22;38809;53.300;6.614;2023-09-12T13:48:12;20.80;99.90
52943;DHT22;38809;53.300;6.614;2023-09-12T13:50:39;20.90;99.90
52943;DHT22;38809;53.300;6.614;2023-09-12T13:53:05;20.90;99.90
52943;DHT22;38809;53.300;6.614;2023-09-12T13:55:34;20.80;99.90
52943;DHT22;38809;53.300;6.614;2023-09-12T13:58:03;20.80;99.90
52943;DHT22;38809;53.300;6.614;2023-09-12T14:00:30;21.00;99.90
52943;DHT22;38809;53.300;6.614;2023-09-12T14:02:56;21.00;99.90
52943;DHT22;38809;53.300;6.614;2023-09-12T14:05:23;20.70;99.90
52943;DHT22;38809;53.300;6.614;2023-09-12T14:07:50;20.80;99.90
52943;DHT22;38809;53.300;6.614;2023-09-12T14:10:16;20.80;99.90
52943;DHT22;38809;53.300;6.614;2023-09-12T14:12:42;20.70;99.90
52943;DHT22;38809;53.300;6.614;2023-09-12T14:15:10;20.40;99.90
52943;DHT22;38809;53.300;6.614;2023-09-12T14:17:36;20.50;99.90
52943;DHT22;38809;53.300;6.614;2023-09-12T14:20:03;20.70;99.90
52943;DHT22;38809;53.300;6.614;2023-09-12T14:22:28;20.80;99.90
52943;DHT22;38809;53.300;6.614;2023-09-12T14:24:55;21.00;99.90
52943;DHT22;38809;53.300;6.614;2023-09-12T14:27:20;21.00;99.90
52943;DHT22;38809;53.300;6.614;2023-09-12T14:29:46;21.00;99.90
52943;DHT22;38809;53.300;6.614;2023-09-12T14:32:14;21.20;99.90
52943;DHT22;38809;53.300;6.614;2023-09-12T14:34:40;21.30;99.90
52943;DHT22;38809;53.300;6.614;2023-09-12T14:37:06;21.40;99.90
52943;DHT22;38809;53.300;6.614;2023-09-12T14:39:32;21.40;99.90
52943;DHT22;38809;53.300;6.614;2023-09-12T14:41:57;21.50;99.90
52943;DHT22;38809;53.300;6.614;2023-09-12T14:44:24;21.60;99.90
52943;DHT22;38809;53.300;6.614;2023-09-12T14:46:50;21.60;99.90
52943;DHT22;38809;53.300;6.614;2023-09-12T14:49:16;21.60;99.90
52943;DHT22;38809;53.300;6.614;2023-09-12T14:51:43;21.50;99.90
52943;DHT22;38809;53.300;6.614;2023-09-12T14:54:09;21.40;99.90
52943;DHT22;38809;53.300;6.614;2023-09-12T14:56:35;21.50;99.90
52943;DHT22;38809;53.300;6.614;2023-09-12T14:59:02;21.40;99.90
52943;DHT22;38809;53.300;6.614;2023-09-12T15:01:28;21.40;99.90
52943;DHT22;38809;53.300;6.614;2023-09-12T15:03:53;20.60;99.90
52943;DHT22;38809;53.300;6.614;2023-09-12T15:06:20;21.40;99.90
52943;DHT22;38809;53.300;6.614;2023-09-12T15:08:46;21.30;99.90
52943;DHT22;38809;53.300;6.614;2023-09-12T15:11:12;21.30;99.90
52943;DHT22;38809;53.300;6.614;2023-09-12T15:13:38;21.30;99.90
52943;DHT22;38809;53.300;6.614;2023-09-12T15:16:04;21.40;99.90
52943;DHT22;38809;53.300;6.614;2023-09-12T15:18:33;21.50;99.90
52943;DHT22;38809;53.300;6.614;2023-09-12T15:20:59;21.30;99.90
52943;DHT22;38809;53.300;6.614;2023-09-12T15:23:25;21.40;99.90
52943;DHT22;38809;53.300;6.614;2023-09-12T15:25:52;21.40;99.90
52943;DHT22;38809;53.300;6.614;2023-09-12T15:28:18;21.40;99.90
52943;DHT22;38809;53.300;6.614;2023-09-12T15:30:44;21.20;99.90
52943;DHT22;38809;53.300;6.614;2023-09-12T15:33:10;21.30;99.90
52943;DHT22;38809;53.300;6.614;2023-09-12T15:35:35;21.40;99.90
52943;DHT22;38809;53.300;6.614;2023-09-12T15:38:01;21.30;99.90
52943;DHT22;38809;53.300;6.614;2023-09-12T15:40:27;21.30;99.90
52943;DHT22;38809;53.300;6.614;2023-09-12T15:42:53;21.10;99.90
52943;DHT22;38809;53.300;6.614;2023-09-12T15:45:19;21.20;99.90
52943;DHT22;38809;53.300;6.614;2023-09-12T15:47:48;21.00;99.90